Terminal Aerodrome Forecast
Issued by NWS Charleston, WV

Current Version | Previous Version | Text Only | Print | Product List | Glossary Off
Versions: 1 2 3 4 5 6 7 8 9 10 11 12 13 14 15 16 17 18 19 20 21 22 23 24 25 26

000
FTUS41 KRLX 300500
TAFPKB
TAF
KPKB 300538Z 3006/3106 00000KT P6SM FEW200
     FM301100 VRB03KT 4SM BR BKN050
     FM301300 18005KT P6SM SCT035
     FM302000 20008KT P6SM SCT045
     FM310100 20004KT P6SM BKN070=

USA.gov is the U.S. government's official web portal to all federal, state and local government web resources and services.